Roland Colony, South Dakota
Current Conditions -  °F | °C
As of 3:14 AM on Wednesday 22 Oct 2014 (Local Time) from KCNB Reporting Station
Scattered Clouds Scattered Clouds  
Wind Chill: 55°   Ceiling: Unl
Heat Index: 55°   Visibility: 10mi
Dew Point: 43°   Wind: 12mph
Humidity: 66%   Direction: 170°S
Pressure: 30.01"   Gusts: 16mph
Location:  44.4253°N, 96.5963°W
Report Text: KCNB 220814Z AUTO 17010G14KT 10SM SCT065 13/06 A3001 RMK AO2 T01250062
Loading
Personal Weather Stations






























Interactive Weather Map
Tropical Storm Tracking
New forecast layout! Learn more

10-Day Weather Forecast

Advertisements
Track Severe Weather on mobile